Time;durP1;ratioP1;P1;durP2;ratioP2;P2;SDS_P1;SDS_P2;PMS_P1;PMS_P2;Temp;Humidity;BMP_temperature;BMP_pressure;BME280_temperature;BME280_humidity;BME280_pressure;Samples;Min_cycle;Max_cycle;Signal;HPM_P1;HPM_P2
2021/10/06 00:00:11;;;;;;;2.83;1.90;;;10.60;99.90;;;;;;487324;244;28038;-75
2021/10/06 00:02:12;;;;;;;4.23;2.17;;;10.60;99.90;;;;;;477238;249;28019;-75
2021/10/06 00:04:13;;;;;;;5.03;2.10;;;10.60;99.90;;;;;;487320;244;27890;-75
2021/10/06 00:06:14;;;;;;;1.90;1.80;;;10.60;99.90;;;;;;477282;248;28589;-76
2021/10/06 00:08:16;;;;;;;1.80;1.70;;;10.60;99.90;;;;;;487320;244;28420;-75
2021/10/06 00:10:17;;;;;;;4.53;1.80;;;10.60;99.90;;;;;;487359;244;28104;-75
2021/10/06 00:12:18;;;;;;;5.63;2.00;;;10.60;99.90;;;;;;477298;248;28777;-76
2021/10/06 00:14:20;;;;;;;6.00;1.90;;;10.60;99.90;;;;;;487333;244;27915;-75
2021/10/06 00:16:21;;;;;;;1.60;1.50;;;10.60;99.90;;;;;;487349;244;27782;-75
2021/10/06 00:18:24;;;;;;;2.00;1.70;;;10.60;99.90;;;;;;477266;249;28003;-75
2021/10/06 00:20:23;;;;;;;1.70;1.60;;;10.50;99.90;;;;;;487323;244;27922;-75
2021/10/06 00:22:24;;;;;;;3.70;1.87;;;10.50;99.90;;;;;;487297;244;27904;-75
2021/10/06 00:24:26;;;;;;;4.30;1.50;;;10.50;99.90;;;;;;477253;248;28147;-75
2021/10/06 00:26:27;;;;;;;1.70;1.60;;;10.50;99.90;;;;;;487326;244;27835;-76
2021/10/06 00:28:28;;;;;;;2.37;2.07;;;10.50;99.90;;;;;;487318;244;28087;-76
2021/10/06 00:30:29;;;;;;;3.40;2.00;;;10.50;99.90;;;;;;477259;248;27945;-75
2021/10/06 00:32:31;;;;;;;1.87;1.77;;;10.40;99.90;;;;;;487331;244;28359;-76
2021/10/06 00:34:32;;;;;;;4.73;1.60;;;10.40;99.90;;;;;;477297;248;28081;-75
2021/10/06 00:36:33;;;;;;;2.63;1.93;;;10.40;99.90;;;;;;487268;244;28486;-75
2021/10/06 00:38:34;;;;;;;6.53;2.00;;;10.40;99.90;;;;;;477289;249;28271;-75
2021/10/06 00:40:36;;;;;;;5.80;2.30;;;10.40;99.90;;;;;;487297;244;27830;-75
2021/10/06 00:42:37;;;;;;;4.60;2.30;;;10.30;99.90;;;;;;477258;249;28151;-75
2021/10/06 00:44:38;;;;;;;3.13;1.60;;;10.30;99.90;;;;;;487296;244;27705;-75
2021/10/06 00:46:39;;;;;;;3.60;1.87;;;10.30;99.90;;;;;;477313;248;27896;-75
2021/10/06 00:48:41;;;;;;;3.17;2.03;;;10.40;99.90;;;;;;487352;244;28041;-75
2021/10/06 00:50:42;;;;;;;3.07;1.80;;;10.30;99.90;;;;;;477250;249;28010;-75
2021/10/06 00:52:43;;;;;;;1.80;1.70;;;10.30;99.90;;;;;;487329;244;28034;-75
2021/10/06 00:54:44;;;;;;;4.63;2.00;;;10.30;99.90;;;;;;477258;248;28059;-75
2021/10/06 00:56:46;;;;;;;8.03;2.00;;;10.20;99.90;;;;;;487341;244;28545;-75
2021/10/06 00:58:47;;;;;;;3.00;1.73;;;10.30;99.90;;;;;;477276;248;28551;-75
2021/10/06 01:00:48;;;;;;;2.80;1.50;;;10.30;99.90;;;;;;487348;244;28483;-74
2021/10/06 01:02:49;;;;;;;8.00;2.27;;;10.30;99.90;;;;;;477353;248;28077;-74
2021/10/06 01:04:51;;;;;;;4.73;2.20;;;10.20;99.90;;;;;;487409;244;27631;-76
2021/10/06 01:06:52;;;;;;;3.20;2.00;;;10.20;99.90;;;;;;477253;248;28055;-76
2021/10/06 01:08:53;;;;;;;3.00;1.90;;;10.20;99.90;;;;;;487411;244;27883;-76
2021/10/06 01:10:54;;;;;;;3.57;2.13;;;10.20;99.90;;;;;;477241;249;27985;-75
2021/10/06 01:12:56;;;;;;;3.40;1.90;;;10.20;99.90;;;;;;487362;244;27721;-76
2021/10/06 01:14:57;;;;;;;4.87;2.47;;;10.10;99.90;;;;;;477285;248;28020;-76
2021/10/06 01:16:58;;;;;;;6.57;2.20;;;10.20;99.90;;;;;;487273;244;28004;-76
2021/10/06 01:18:59;;;;;;;2.83;1.90;;;10.20;99.90;;;;;;477329;248;27794;-76
2021/10/06 01:21:01;;;;;;;2.20;1.60;;;10.20;99.90;;;;;;487343;244;28428;-76
2021/10/06 01:23:02;;;;;;;6.17;1.80;;;10.20;99.90;;;;;;477292;248;28569;-75
2021/10/06 01:25:03;;;;;;;3.00;1.77;;;10.20;99.90;;;;;;487362;244;28334;-75
2021/10/06 01:27:04;;;;;;;5.60;2.10;;;10.20;99.90;;;;;;477265;248;28463;-75
2021/10/06 01:29:06;;;;;;;3.50;2.00;;;10.20;99.90;;;;;;487440;244;27792;-75
2021/10/06 01:31:07;;;;;;;1.70;1.57;;;10.20;99.90;;;;;;477352;248;27998;-75
2021/10/06 01:33:08;;;;;;;2.33;1.60;;;10.20;99.90;;;;;;487578;244;27906;-75
2021/10/06 01:35:09;;;;;;;2.90;1.67;;;10.20;99.90;;;;;;477530;248;27994;-75
2021/10/06 01:37:11;;;;;;;3.43;1.57;;;10.20;99.90;;;;;;487589;244;27915;-75
2021/10/06 01:39:12;;;;;;;2.70;1.40;;;10.20;99.90;;;;;;477512;248;27672;-75
2021/10/06 01:41:13;;;;;;;2.00;1.50;;;10.20;99.90;;;;;;487538;244;27390;-75
2021/10/06 01:43:14;;;;;;;3.23;1.50;;;10.10;99.90;;;;;;477376;248;28212;-75
2021/10/06 01:45:16;;;;;;;3.33;1.73;;;10.20;99.90;;;;;;487401;244;28290;-75
2021/10/06 01:47:17;;;;;;;3.53;1.73;;;10.20;99.90;;;;;;477313;246;27866;-75
2021/10/06 01:49:18;;;;;;;1.80;1.70;;;10.10;99.90;;;;;;487324;244;28233;-74
2021/10/06 01:51:19;;;;;;;4.60;2.17;;;10.10;99.90;;;;;;487386;244;28401;-74
2021/10/06 01:53:21;;;;;;;3.93;1.93;;;10.10;99.90;;;;;;487359;244;27997;-76
2021/10/06 01:55:22;;;;;;;2.17;1.83;;;10.10;99.90;;;;;;477282;248;28029;-76
2021/10/06 01:57:23;;;;;;;2.20;1.67;;;10.10;99.90;;;;;;487319;244;27874;-75
2021/10/06 01:59:24;;;;;;;3.60;1.90;;;10.10;99.90;;;;;;477402;248;27559;-76
2021/10/06 02:01:26;;;;;;;3.50;2.20;;;10.10;99.90;;;;;;487531;244;27868;-76
2021/10/06 02:03:27;;;;;;;3.50;2.30;;;10.10;99.90;;;;;;477473;249;28014;-75
2021/10/06 02:05:28;;;;;;;2.47;1.83;;;10.20;99.90;;;;;;487541;244;28149;-75
2021/10/06 02:07:29;;;;;;;3.50;1.83;;;10.20;99.90;;;;;;477385;248;28148;-76
2021/10/06 02:09:31;;;;;;;4.30;1.80;;;10.20;99.90;;;;;;487390;244;27920;-75
2021/10/06 02:11:32;;;;;;;2.60;2.00;;;10.20;99.90;;;;;;477299;248;28215;-74
2021/10/06 02:13:33;;;;;;;2.27;2.07;;;10.10;99.90;;;;;;487332;244;28445;-76
2021/10/06 02:15:34;;;;;;;2.20;2.00;;;10.10;99.90;;;;;;477316;248;28496;-75
2021/10/06 02:17:36;;;;;;;4.30;2.00;;;10.20;99.90;;;;;;487354;244;27953;-76
2021/10/06 02:19:37;;;;;;;4.33;1.90;;;10.20;99.90;;;;;;477284;248;28063;-76
2021/10/06 02:21:38;;;;;;;2.73;1.80;;;10.20;99.90;;;;;;487354;244;28058;-74
2021/10/06 02:23:39;;;;;;;5.60;2.03;;;10.20;99.90;;;;;;477237;249;27995;-75
2021/10/06 02:25:41;;;;;;;6.73;2.10;;;10.20;99.90;;;;;;487335;244;27893;-75
2021/10/06 02:27:42;;;;;;;4.67;2.20;;;10.10;99.90;;;;;;477279;248;28002;-75
2021/10/06 02:29:43;;;;;;;6.07;2.60;;;10.20;99.90;;;;;;487336;244;27928;-75
2021/10/06 02:31:45;;;;;;;4.30;2.20;;;10.20;99.90;;;;;;477311;248;27979;-76
2021/10/06 02:33:46;;;;;;;6.43;2.43;;;10.20;99.90;;;;;;487289;244;27527;-75
2021/10/06 02:35:47;;;;;;;3.23;2.30;;;10.20;99.90;;;;;;477295;248;28713;-76
2021/10/06 02:37:48;;;;;;;6.23;2.23;;;10.20;99.90;;;;;;487337;244;28460;-76
2021/10/06 02:39:50;;;;;;;7.30;2.40;;;10.20;99.90;;;;;;477260;248;28609;-76
2021/10/06 02:41:51;;;;;;;3.03;2.10;;;10.20;99.90;;;;;;487340;244;28149;-75
2021/10/06 02:43:52;;;;;;;2.50;2.20;;;10.20;99.90;;;;;;477273;249;27631;-76
2021/10/06 02:45:53;;;;;;;2.53;2.33;;;10.10;99.90;;;;;;487304;244;28421;-75
2021/10/06 02:47:55;;;;;;;2.03;1.90;;;10.20;99.90;;;;;;477274;248;28493;-76
2021/10/06 02:49:56;;;;;;;3.30;2.37;;;10.20;99.90;;;;;;487306;244;27815;-75
2021/10/06 02:51:57;;;;;;;2.40;1.83;;;10.20;99.90;;;;;;477275;248;28035;-75
2021/10/06 02:53:58;;;;;;;4.10;2.50;;;10.10;99.90;;;;;;487346;244;27937;-75
2021/10/06 02:56:00;;;;;;;3.53;2.40;;;10.10;99.90;;;;;;477286;248;28136;-75
2021/10/06 02:58:01;;;;;;;2.77;2.53;;;10.10;99.90;;;;;;487349;244;27400;-76
2021/10/06 03:00:02;;;;;;;2.83;2.30;;;10.20;99.90;;;;;;477235;249;28096;-76
2021/10/06 03:02:03;;;;;;;4.90;2.50;;;10.20;99.90;;;;;;487335;244;27909;-76
2021/10/06 03:04:05;;;;;;;5.23;2.90;;;10.20;99.90;;;;;;477246;248;27895;-75
2021/10/06 03:06:06;;;;;;;5.40;2.70;;;10.20;99.90;;;;;;487299;244;28040;-76
2021/10/06 03:08:07;;;;;;;3.70;2.57;;;10.20;99.90;;;;;;477278;248;29367;-75
2021/10/06 03:10:08;;;;;;;3.30;2.87;;;10.10;99.90;;;;;;487301;244;28369;-75
2021/10/06 03:12:11;;;;;;;4.43;2.77;;;10.20;99.90;;;;;;477286;248;28518;-76
2021/10/06 03:14:11;;;;;;;5.37;2.70;;;10.10;99.90;;;;;;487299;244;28007;-76
2021/10/06 03:16:12;;;;;;;5.40;3.53;;;10.20;99.90;;;;;;477291;248;28119;-75
2021/10/06 03:18:13;;;;;;;3.03;2.70;;;10.10;99.90;;;;;;487342;244;27984;-75
2021/10/06 03:20:16;;;;;;;2.80;2.60;;;10.10;99.90;;;;;;477290;248;28001;-75
2021/10/06 03:22:16;;;;;;;3.93;2.90;;;10.10;99.90;;;;;;487335;244;27925;-75
2021/10/06 03:24:17;;;;;;;4.40;2.90;;;10.20;99.90;;;;;;477306;248;28010;-75
2021/10/06 03:26:18;;;;;;;4.10;2.87;;;10.10;99.90;;;;;;487332;244;27656;-76
2021/10/06 03:28:20;;;;;;;4.97;2.70;;;10.10;99.90;;;;;;477304;248;28225;-76
2021/10/06 03:30:21;;;;;;;5.60;3.20;;;10.10;99.90;;;;;;487337;244;28082;-75
2021/10/06 03:32:22;;;;;;;2.60;2.40;;;10.10;99.90;;;;;;477242;248;28225;-76
2021/10/06 03:34:23;;;;;;;4.23;2.70;;;10.10;99.90;;;;;;487322;244;28322;-76
2021/10/06 03:36:25;;;;;;;3.97;3.00;;;10.10;99.90;;;;;;477233;248;28528;-76
2021/10/06 03:38:26;;;;;;;4.67;2.80;;;10.10;99.90;;;;;;487330;244;27993;-75
2021/10/06 03:40:27;;;;;;;4.70;2.97;;;10.10;99.90;;;;;;477258;248;27627;-75
2021/10/06 03:42:28;;;;;;;3.23;2.63;;;10.10;99.90;;;;;;487303;244;27561;-75
2021/10/06 03:44:30;;;;;;;8.40;2.93;;;10.10;99.90;;;;;;477254;248;27663;-74
2021/10/06 03:46:31;;;;;;;5.50;2.83;;;10.10;99.90;;;;;;487281;244;27996;-75
2021/10/06 03:48:32;;;;;;;5.83;2.90;;;10.10;99.90;;;;;;477276;248;28140;-76
2021/10/06 03:50:33;;;;;;;4.27;3.03;;;10.10;99.90;;;;;;487291;244;27753;-76
2021/10/06 03:52:35;;;;;;;4.00;2.97;;;10.10;99.90;;;;;;477247;248;28164;-76
2021/10/06 03:54:36;;;;;;;7.50;2.90;;;10.10;99.90;;;;;;487338;244;27595;-76
2021/10/06 03:56:37;;;;;;;3.10;2.67;;;10.00;99.90;;;;;;477249;248;28484;-73
2021/10/06 03:58:38;;;;;;;5.07;2.83;;;10.00;99.90;;;;;;487315;244;28486;-75
2021/10/06 04:00:40;;;;;;;5.97;2.80;;;10.00;99.90;;;;;;477257;249;28412;-76
2021/10/06 04:02:41;;;;;;;3.50;2.50;;;10.00;99.90;;;;;;487289;244;27795;-76
2021/10/06 04:04:42;;;;;;;3.83;2.50;;;10.00;99.90;;;;;;477253;248;28006;-76
2021/10/06 04:06:43;;;;;;;2.70;2.50;;;10.00;99.90;;;;;;487308;244;27871;-76
2021/10/06 04:08:45;;;;;;;4.00;2.77;;;10.00;99.90;;;;;;477245;248;28128;-76
2021/10/06 04:10:46;;;;;;;3.00;2.70;;;10.00;99.90;;;;;;487331;244;27925;-75
2021/10/06 04:12:47;;;;;;;6.90;2.57;;;10.00;99.90;;;;;;477248;248;28591;-76
2021/10/06 04:14:48;;;;;;;3.83;2.70;;;10.00;99.90;;;;;;487332;244;27970;-76
2021/10/06 04:16:50;;;;;;;3.77;2.70;;;10.00;99.90;;;;;;477235;249;28063;-76
2021/10/06 04:18:51;;;;;;;4.47;3.03;;;10.00;99.90;;;;;;487313;244;27807;-76
2021/10/06 04:20:52;;;;;;;5.43;2.80;;;9.90;99.90;;;;;;477240;248;28326;-75
2021/10/06 04:22:54;;;;;;;3.90;3.00;;;10.00;99.90;;;;;;487319;244;28286;-75
2021/10/06 04:24:55;;;;;;;3.07;2.60;;;10.00;99.90;;;;;;477170;249;28478;-75
2021/10/06 04:26:56;;;;;;;5.97;2.50;;;10.00;99.90;;;;;;487457;244;27867;-74
2021/10/06 04:28:57;;;;;;;5.67;3.10;;;10.00;99.90;;;;;;477235;248;28041;-74
2021/10/06 04:30:58;;;;;;;6.50;2.97;;;9.90;99.90;;;;;;487308;244;27635;-74
2021/10/06 04:33:00;;;;;;;4.23;2.80;;;9.90;99.90;;;;;;477284;248;28166;-74
2021/10/06 04:35:01;;;;;;;4.83;2.50;;;9.90;99.90;;;;;;487305;244;27997;-75
2021/10/06 04:37:02;;;;;;;3.03;2.67;;;9.90;99.90;;;;;;477265;248;28047;-75
2021/10/06 04:39:03;;;;;;;3.17;2.70;;;9.90;99.90;;;;;;487329;244;27431;-75
2021/10/06 04:41:05;;;;;;;6.57;3.00;;;9.90;99.90;;;;;;487343;244;28012;-75
2021/10/06 04:43:06;;;;;;;7.40;3.10;;;9.90;99.90;;;;;;477284;248;28059;-75
2021/10/06 04:45:07;;;;;;;4.53;2.70;;;9.80;99.90;;;;;;487296;244;28386;-74
2021/10/06 04:47:08;;;;;;;4.17;2.57;;;9.80;99.90;;;;;;477259;248;28179;-75
2021/10/06 04:49:10;;;;;;;7.83;3.30;;;9.80;99.90;;;;;;487293;244;27981;-74
2021/10/06 04:51:11;;;;;;;5.03;3.47;;;9.80;99.90;;;;;;477275;249;27961;-75
2021/10/06 04:53:12;;;;;;;7.70;3.20;;;9.80;99.90;;;;;;487302;244;28003;-75
2021/10/06 04:55:13;;;;;;;9.53;3.20;;;9.80;99.90;;;;;;477264;248;28509;-74
2021/10/06 04:57:15;;;;;;;8.93;3.23;;;9.70;99.90;;;;;;487356;242;28055;-74
2021/10/06 04:59:16;;;;;;;6.97;3.10;;;9.80;99.90;;;;;;477296;248;28627;-74
2021/10/06 05:01:17;;;;;;;5.60;3.07;;;9.80;99.90;;;;;;487316;244;28209;-74
2021/10/06 05:03:18;;;;;;;4.83;2.80;;;9.80;99.90;;;;;;477300;248;28015;-75
2021/10/06 05:05:20;;;;;;;4.27;3.50;;;9.90;99.90;;;;;;487283;244;27828;-75
2021/10/06 05:07:21;;;;;;;3.87;3.47;;;9.80;99.90;;;;;;477299;248;28020;-74
2021/10/06 05:09:22;;;;;;;8.53;3.07;;;9.90;99.90;;;;;;487331;244;27788;-74
2021/10/06 05:11:23;;;;;;;4.73;3.20;;;9.80;99.90;;;;;;477266;248;27991;-74
2021/10/06 05:13:25;;;;;;;4.57;2.80;;;9.80;99.90;;;;;;487366;244;27876;-74
2021/10/06 05:15:26;;;;;;;4.50;3.00;;;9.80;99.90;;;;;;477279;248;27669;-75
2021/10/06 05:17:27;;;;;;;9.47;3.47;;;9.80;99.90;;;;;;487362;244;27949;-75
2021/10/06 05:19:28;;;;;;;4.37;3.03;;;9.80;99.90;;;;;;477293;248;28065;-75
2021/10/06 05:21:30;;;;;;;3.10;2.73;;;9.80;99.90;;;;;;487303;244;27640;-75
2021/10/06 05:23:31;;;;;;;3.97;2.73;;;9.80;99.90;;;;;;477291;248;27961;-75
2021/10/06 05:25:32;;;;;;;7.70;2.87;;;9.80;99.90;;;;;;487331;244;27790;-74
2021/10/06 05:27:33;;;;;;;7.40;3.10;;;9.80;99.90;;;;;;477299;248;27958;-74
2021/10/06 05:29:35;;;;;;;6.00;3.13;;;9.70;99.90;;;;;;487343;244;27928;-75
2021/10/06 05:31:36;;;;;;;3.67;2.80;;;9.70;99.90;;;;;;477247;248;28099;-75
2021/10/06 05:33:37;;;;;;;8.70;3.80;;;9.70;99.90;;;;;;487348;244;28207;-74
2021/10/06 05:35:40;;;;;;;6.03;3.10;;;9.70;99.90;;;;;;477261;248;28505;-74
2021/10/06 05:37:40;;;;;;;8.97;3.40;;;9.70;99.90;;;;;;487279;244;28729;-74
2021/10/06 05:39:41;;;;;;;4.00;2.40;;;9.70;99.90;;;;;;477288;245;28481;-74
2021/10/06 05:41:42;;;;;;;4.60;3.17;;;9.70;99.90;;;;;;487328;244;28494;-74
2021/10/06 05:43:43;;;;;;;3.07;2.40;;;9.70;99.90;;;;;;477292;248;28158;-74
2021/10/06 05:45:45;;;;;;;8.60;2.77;;;9.70;99.90;;;;;;487345;244;27880;-74
2021/10/06 05:47:46;;;;;;;2.93;2.47;;;9.70;99.90;;;;;;477287;248;28086;-75
2021/10/06 05:49:47;;;;;;;5.00;2.63;;;9.70;99.90;;;;;;487324;244;27985;-75
2021/10/06 05:51:48;;;;;;;5.63;2.70;;;9.70;99.90;;;;;;477276;248;27697;-74
2021/10/06 05:53:50;;;;;;;5.53;2.60;;;9.70;99.90;;;;;;487343;242;27941;-74
2021/10/06 05:55:51;;;;;;;3.20;2.60;;;9.70;99.90;;;;;;477284;248;27768;-74
2021/10/06 05:57:52;;;;;;;3.53;2.97;;;9.70;99.90;;;;;;487318;244;27850;-74
2021/10/06 05:59:53;;;;;;;6.83;2.63;;;9.60;99.90;;;;;;477237;248;27683;-75
2021/10/06 06:01:55;;;;;;;5.23;2.27;;;9.70;99.90;;;;;;487364;244;27892;-75
2021/10/06 06:03:56;;;;;;;2.33;2.00;;;9.70;99.90;;;;;;477245;249;28110;-74
2021/10/06 06:05:57;;;;;;;5.10;2.43;;;9.70;99.90;;;;;;487322;244;27794;-75
2021/10/06 06:07:58;;;;;;;3.30;2.13;;;9.70;99.90;;;;;;477242;248;27516;-74
2021/10/06 06:10:00;;;;;;;4.23;2.13;;;9.70;99.90;;;;;;487280;244;27998;-74
2021/10/06 06:12:01;;;;;;;3.97;3.13;;;9.70;99.90;;;;;;477267;248;28624;-75
2021/10/06 06:14:02;;;;;;;7.60;2.90;;;9.70;99.90;;;;;;487289;244;27863;-74
2021/10/06 06:16:03;;;;;;;3.23;2.10;;;9.70;99.90;;;;;;477241;248;28689;-74
2021/10/06 06:18:05;;;;;;;2.50;2.30;;;9.70;99.90;;;;;;487168;244;29225;-75
2021/10/06 06:20:06;;;;;;;3.73;2.67;;;9.70;99.90;;;;;;477210;249;28424;-75
2021/10/06 06:22:07;;;;;;;2.47;2.27;;;9.70;99.90;;;;;;487104;244;28419;-74
2021/10/06 06:24:08;;;;;;;9.73;2.30;;;9.80;99.90;;;;;;476989;248;27986;-75
2021/10/06 06:26:10;;;;;;;3.50;2.50;;;9.80;99.90;;;;;;487218;244;28451;-75
2021/10/06 06:28:11;;;;;;;3.33;2.43;;;9.80;99.90;;;;;;477190;248;27929;-74
2021/10/06 06:30:12;;;;;;;3.10;2.37;;;9.80;99.90;;;;;;487189;244;27869;-75
2021/10/06 06:32:13;;;;;;;2.00;1.90;;;9.80;99.90;;;;;;477209;248;27794;-75
2021/10/06 06:34:15;;;;;;;2.30;1.97;;;9.80;99.90;;;;;;487205;244;28050;-75
2021/10/06 06:36:16;;;;;;;5.57;2.60;;;9.70;99.90;;;;;;477247;248;28520;-75
2021/10/06 06:38:17;;;;;;;2.07;1.97;;;9.80;99.90;;;;;;487291;244;28409;-75
2021/10/06 06:40:18;;;;;;;1.67;1.57;;;9.80;99.90;;;;;;477186;248;28316;-75
2021/10/06 06:42:20;;;;;;;9.77;2.43;;;9.80;99.90;;;;;;487310;244;28104;-75
2021/10/06 06:44:21;;;;;;;4.73;2.10;;;9.70;99.90;;;;;;477238;248;28048;-75
2021/10/06 06:46:22;;;;;;;4.10;2.27;;;9.80;99.90;;;;;;487230;244;27894;-75
2021/10/06 06:48:23;;;;;;;2.30;2.00;;;9.80;99.90;;;;;;477279;248;28141;-75
2021/10/06 06:50:25;;;;;;;2.63;2.07;;;9.80;99.90;;;;;;487252;244;27959;-74
2021/10/06 06:52:26;;;;;;;2.53;2.10;;;9.80;99.90;;;;;;477257;248;28129;-75
2021/10/06 06:54:28;;;;;;;4.63;2.20;;;9.80;99.90;;;;;;487323;244;27924;-75
2021/10/06 06:56:30;;;;;;;3.63;2.30;;;9.80;99.90;;;;;;477217;249;28193;-75
2021/10/06 06:58:30;;;;;;;3.03;2.20;;;9.80;99.90;;;;;;487304;244;27792;-74
2021/10/06 07:00:31;;;;;;;3.60;2.20;;;9.80;99.90;;;;;;487275;244;27915;-75
2021/10/06 07:02:32;;;;;;;4.27;2.50;;;9.80;99.90;;;;;;477215;248;28041;-75
2021/10/06 07:04:33;;;;;;;7.53;2.83;;;9.80;99.90;;;;;;487291;244;27703;-75
2021/10/06 07:06:35;;;;;;;5.03;2.43;;;9.80;99.90;;;;;;477186;249;28074;-75
2021/10/06 07:08:36;;;;;;;6.00;2.57;;;9.80;99.90;;;;;;487274;244;27883;-75
2021/10/06 07:10:37;;;;;;;4.50;2.33;;;9.80;99.90;;;;;;487268;244;27514;-75
2021/10/06 07:12:38;;;;;;;3.67;2.40;;;9.80;99.90;;;;;;477162;249;28152;-74
2021/10/06 07:14:40;;;;;;;3.67;2.50;;;9.80;99.90;;;;;;487292;244;28468;-75
2021/10/06 07:16:41;;;;;;;2.57;2.00;;;9.70;99.90;;;;;;477262;249;28503;-75
2021/10/06 07:18:42;;;;;;;4.60;2.73;;;9.80;99.90;;;;;;487260;244;28322;-74
2021/10/06 07:20:43;;;;;;;3.60;2.53;;;9.90;99.90;;;;;;487282;244;28443;-72
2021/10/06 07:22:45;;;;;;;5.33;3.00;;;10.00;99.90;;;;;;477254;249;27790;-75
2021/10/06 07:24:46;;;;;;;3.13;2.33;;;10.10;99.90;;;;;;487258;244;27995;-74
2021/10/06 07:26:47;;;;;;;3.63;3.33;;;10.00;99.90;;;;;;477216;248;28015;-75
2021/10/06 07:28:49;;;;;;;3.97;2.90;;;10.00;99.90;;;;;;487268;244;27984;-75
2021/10/06 07:30:50;;;;;;;3.90;2.70;;;10.00;99.90;;;;;;477227;248;28037;-75
2021/10/06 07:32:51;;;;;;;10.10;4.53;;;10.00;99.90;;;;;;487285;244;27956;-74
2021/10/06 07:34:52;;;;;;;13.40;6.30;;;10.00;99.90;;;;;;487217;244;28003;-74
2021/10/06 07:36:54;;;;;;;18.23;8.50;;;10.00;99.90;;;;;;477201;248;28034;-74
2021/10/06 07:38:55;;;;;;;12.23;7.70;;;9.90;99.90;;;;;;487057;244;28341;-74
2021/10/06 07:40:56;;;;;;;11.53;5.73;;;10.00;99.90;;;;;;469391;253;28129;-74
2021/10/06 07:42:57;;;;;;;15.10;5.70;;;10.10;99.90;;;;;;469476;253;27942;-74
2021/10/06 07:44:59;;;;;;;6.23;3.90;;;10.00;99.90;;;;;;469458;253;27867;-74
2021/10/06 07:47:00;;;;;;;9.10;3.50;;;10.00;99.90;;;;;;469474;253;28020;-73
2021/10/06 07:49:01;;;;;;;6.40;3.67;;;10.00;99.90;;;;;;469510;253;28174;-74
2021/10/06 07:51:02;;;;;;;7.50;3.60;;;9.90;99.90;;;;;;469446;253;27872;-75
2021/10/06 07:53:04;;;;;;;5.20;3.57;;;9.90;99.90;;;;;;469515;253;27909;-74
2021/10/06 07:55:05;;;;;;;4.30;2.80;;;9.90;99.90;;;;;;469556;253;27831;-74
2021/10/06 07:57:06;;;;;;;7.40;2.90;;;9.90;99.90;;;;;;469422;253;28319;-74
2021/10/06 07:59:07;;;;;;;3.93;2.70;;;10.00;99.90;;;;;;469458;253;27985;-74
2021/10/06 08:01:09;;;;;;;3.33;3.03;;;10.00;99.90;;;;;;469393;253;27971;-74
2021/10/06 08:03:10;;;;;;;3.10;2.70;;;10.20;99.90;;;;;;469473;253;28133;-74
2021/10/06 08:05:11;;;;;;;3.40;2.70;;;10.30;99.90;;;;;;469522;253;28484;-74
2021/10/06 08:07:14;;;;;;;2.93;2.60;;;10.30;99.90;;;;;;469441;253;28226;-73
2021/10/06 08:09:14;;;;;;;4.47;2.83;;;10.40;99.90;;;;;;469487;253;28350;-75
2021/10/06 08:11:15;;;;;;;3.27;2.77;;;10.40;99.90;;;;;;469446;253;28091;-75
2021/10/06 08:13:16;;;;;;;4.70;2.63;;;10.50;99.90;;;;;;469486;253;27959;-74
2021/10/06 08:15:17;;;;;;;3.63;2.73;;;10.40;99.90;;;;;;469519;253;28069;-75
2021/10/06 08:17:19;;;;;;;3.20;2.70;;;10.50;99.90;;;;;;469494;253;28098;-75
2021/10/06 08:19:20;;;;;;;5.07;2.40;;;10.60;99.90;;;;;;469411;253;27633;-75
2021/10/06 08:21:21;;;;;;;5.43;2.57;;;10.50;99.90;;;;;;469468;253;27935;-75
2021/10/06 08:23:22;;;;;;;2.93;2.60;;;10.50;99.90;;;;;;469421;253;27997;-75
2021/10/06 08:25:24;;;;;;;5.50;3.10;;;10.50;99.90;;;;;;469454;253;27995;-75
2021/10/06 08:27:25;;;;;;;4.57;2.93;;;10.60;99.90;;;;;;469455;253;28447;-75
2021/10/06 08:29:26;;;;;;;6.43;3.10;;;10.60;99.90;;;;;;469480;253;28611;-75
2021/10/06 08:31:27;;;;;;;3.73;2.60;;;10.60;99.90;;;;;;469699;253;28460;-75
2021/10/06 08:33:29;;;;;;;3.83;2.67;;;10.70;99.90;;;;;;469727;253;28480;-75
2021/10/06 08:35:30;;;;;;;4.80;2.83;;;10.80;99.90;;;;;;469657;253;28060;-75
2021/10/06 08:37:31;;;;;;;3.93;2.50;;;10.90;99.90;;;;;;469733;253;27855;-74
2021/10/06 08:39:33;;;;;;;3.90;2.67;;;10.90;99.90;;;;;;469679;253;28068;-74
2021/10/06 08:41:34;;;;;;;2.77;2.53;;;11.10;99.90;;;;;;469520;253;28040;-74
2021/10/06 08:43:35;;;;;;;5.90;3.00;;;11.20;99.90;;;;;;469591;253;28034;-74
2021/10/06 08:45:36;;;;;;;4.83;2.73;;;11.20;99.90;;;;;;469534;253;27934;-74
2021/10/06 08:47:38;;;;;;;2.77;2.60;;;11.20;99.90;;;;;;469565;253;27878;-74
2021/10/06 08:49:39;;;;;;;4.67;3.00;;;11.20;99.90;;;;;;469545;253;27855;-74
2021/10/06 08:51:40;;;;;;;4.00;2.80;;;11.10;99.90;;;;;;469441;253;28770;-74
2021/10/06 08:53:41;;;;;;;4.33;3.07;;;11.20;99.90;;;;;;469605;253;28881;-75
2021/10/06 08:55:43;;;;;;;3.83;3.03;;;11.20;99.90;;;;;;469685;253;28384;-74
2021/10/06 08:57:44;;;;;;;5.27;2.53;;;11.30;99.90;;;;;;469642;253;28570;-74
2021/10/06 08:59:45;;;;;;;3.57;2.63;;;11.50;99.90;;;;;;469627;253;27886;-74
2021/10/06 09:01:46;;;;;;;4.60;2.80;;;11.40;99.90;;;;;;469567;253;28116;-74
2021/10/06 09:03:48;;;;;;;6.30;3.30;;;11.20;99.90;;;;;;469576;253;28064;-75
2021/10/06 09:05:49;;;;;;;6.90;3.20;;;11.10;99.90;;;;;;469541;253;28264;-75
2021/10/06 09:07:50;;;;;;;3.03;2.70;;;11.20;99.90;;;;;;469504;253;28229;-76
2021/10/06 09:09:52;;;;;;;4.37;3.60;;;11.40;99.90;;;;;;469529;253;28183;-75
2021/10/06 09:11:53;;;;;;;5.90;4.13;;;11.70;99.90;;;;;;469456;253;28183;-74
2021/10/06 09:13:54;;;;;;;5.30;3.73;;;11.80;99.90;;;;;;469511;253;28329;-75
2021/10/06 09:15:57;;;;;;;6.87;3.53;;;11.80;99.90;;;;;;469527;253;28717;-75
2021/10/06 09:17:58;;;;;;;6.37;3.30;;;11.90;99.90;;;;;;469348;253;28629;-75
2021/10/06 09:19:58;;;;;;;4.20;3.30;;;11.70;99.90;;;;;;469446;253;28572;-75
2021/10/06 09:21:59;;;;;;;3.97;3.53;;;11.60;99.90;;;;;;469449;240;28292;-74
2021/10/06 09:24:00;;;;;;;4.40;2.93;;;11.50;99.90;;;;;;466662;249;28371;-75
2021/10/06 09:26:01;;;;;;;5.57;3.37;;;11.40;99.90;;;;;;476329;249;28364;-74
2021/10/06 09:28:03;;;;;;;3.63;2.97;;;11.50;99.90;;;;;;476145;249;28315;-74
2021/10/06 09:30:04;;;;;;;4.37;2.70;;;11.50;99.90;;;;;;476042;249;28215;-74
2021/10/06 09:32:05;;;;;;;3.37;2.63;;;11.50;99.90;;;;;;476405;249;28337;-74
2021/10/06 09:34:07;;;;;;;2.97;2.73;;;11.60;99.90;;;;;;476381;249;28241;-74
2021/10/06 09:36:08;;;;;;;2.80;2.60;;;11.70;99.90;;;;;;476339;249;28268;-74
2021/10/06 09:38:09;;;;;;;3.00;2.40;;;11.90;99.90;;;;;;476316;249;28230;-74
2021/10/06 09:40:10;;;;;;;6.30;3.03;;;11.90;99.90;;;;;;476352;246;29009;-75
2021/10/06 09:42:11;;;;;;;3.30;2.67;;;12.10;99.90;;;;;;476364;249;28710;-74
2021/10/06 09:44:13;;;;;;;5.13;2.90;;;12.30;99.90;;;;;;476362;249;28828;-75
2021/10/06 09:46:14;;;;;;;3.17;2.87;;;12.40;99.90;;;;;;476366;249;28283;-74
2021/10/06 09:48:15;;;;;;;5.77;3.03;;;12.60;99.90;;;;;;476345;249;28584;-74
2021/10/06 09:50:16;;;;;;;9.03;2.70;;;12.60;99.90;;;;;;476380;245;28489;-75
2021/10/06 09:52:18;;;;;;;2.77;2.57;;;12.60;99.90;;;;;;476370;249;28342;-74
2021/10/06 09:54:19;;;;;;;5.53;3.00;;;12.70;99.90;;;;;;476385;249;29375;-74
2021/10/06 09:56:20;;;;;;;6.30;3.40;;;12.80;99.90;;;;;;476404;249;28702;-74
2021/10/06 09:58:21;;;;;;;4.37;3.30;;;12.80;99.90;;;;;;476344;249;28746;-74
2021/10/06 10:00:23;;;;;;;3.50;3.30;;;12.70;99.90;;;;;;476402;249;28845;-75
2021/10/06 10:02:25;;;;;;;5.97;4.10;;;12.60;99.90;;;;;;476387;249;28167;-74
2021/10/06 10:04:26;;;;;;;4.50;3.07;;;12.50;99.90;;;;;;476293;249;28343;-74
2021/10/06 10:06:26;;;;;;;4.80;3.80;;;12.20;99.90;;;;;;476397;249;28398;-74
2021/10/06 10:08:28;;;;;;;5.00;2.73;;;12.10;99.90;;;;;;476335;249;28077;-74
2021/10/06 10:10:29;;;;;;;3.20;2.90;;;11.90;99.90;;;;;;476379;249;28060;-74
2021/10/06 10:12:30;;;;;;;4.50;3.00;;;11.80;99.90;;;;;;476403;249;28193;-74
2021/10/06 10:14:32;;;;;;;3.40;2.83;;;11.70;99.90;;;;;;476279;249;28599;-74
2021/10/06 10:16:33;;;;;;;3.77;2.87;;;11.80;99.90;;;;;;476353;249;28272;-74
2021/10/06 10:18:34;;;;;;;3.67;3.10;;;11.80;99.90;;;;;;476394;249;28933;-74
2021/10/06 10:20:35;;;;;;;3.30;2.80;;;11.90;99.90;;;;;;476355;249;28766;-75
2021/10/06 10:22:36;;;;;;;3.43;2.97;;;11.90;99.90;;;;;;476384;249;28975;-74
2021/10/06 10:24:38;;;;;;;3.37;2.50;;;12.20;99.90;;;;;;477431;249;28614;-74
2021/10/06 10:26:39;;;;;;;4.57;2.33;;;12.20;99.90;;;;;;477534;249;28473;-75
2021/10/06 10:28:40;;;;;;;5.93;2.47;;;12.20;99.90;;;;;;477601;249;28298;-74
2021/10/06 10:30:41;;;;;;;3.20;2.90;;;12.00;99.90;;;;;;477525;249;28133;-75
2021/10/06 10:32:43;;;;;;;6.67;3.30;;;11.90;99.90;;;;;;477587;249;28138;-74